KSBD

San Bernardino International Airport

San Bernardino, California, USA
METAR KSBD 161646Z 00000KT 3SM RA SCT028 OVC037 13/11 A3020
Observed Flight Rules
Jan-16 @ 16:46 UTC (2 hours ago) Marginal Visual Flight Rules
Visibility Clouds Conditions
3 miles
  • Scattered at 2,800' AGL
  • Overcast at 3,700' AGL
  • Rain
Temperatures Readings
Current 13°C / 55°F
Dewpoint 11°C / 52°F
Humidity 88%
Altimeter 30.2" Hg
Pressure 1022.72 hPa
Elevation 353
METAR KSBD 161646Z 00000KT 3SM RA SCT028 OVC037 13/11 A3020
Observed Flight Rules
Jan-16 @ 16:46 UTC
(2 hours ago)
MVFR
Clouds
  • Scattered at 2,800' AGL
  • Overcast at 3,700' AGL
Conditions
  • Rain
Temperature Dewpoint
13°C / 55°F 11°C / 52°F
Humidity Altimeter Pressure
88% 30.2" Hg 1022.72 hPa